Time;durP1;ratioP1;P1;durP2;ratioP2;P2;SDS_P1;SDS_P2;PMS_P1;PMS_P2;Temp;Humidity;BMP_temperature;BMP_pressure;BME280_temperature;BME280_humidity;BME280_pressure;Samples;Min_cycle;Max_cycle;Signal;HPM_P1;HPM_P2
2021/03/03 00:00:49;;;;;;;24.63;16.65;;;;;;;6.13;66.61;102882.13;4960761;28;20078;-74
2021/03/03 00:03:16;;;;;;;24.67;16.23;;;;;;;6.13;66.29;102887.34;4970704;28;20133;-74
2021/03/03 00:05:42;;;;;;;28.23;17.67;;;;;;;6.08;66.88;102884.06;4965312;28;20059;-74
2021/03/03 00:08:08;;;;;;;32.38;18.95;;;;;;;6.11;66.45;102888.28;4953462;28;20058;-74
2021/03/03 00:10:34;;;;;;;24.85;17.83;;;;;;;6.06;66.42;102883.28;4965479;28;20141;-74
2021/03/03 00:13:00;;;;;;;34.28;18.80;;;;;;;6.00;66.26;102882.69;4969466;28;20063;-74
2021/03/03 00:15:26;;;;;;;27.15;16.40;;;;;;;5.99;67.07;102888.81;4947945;28;20058;-74
2021/03/03 00:17:52;;;;;;;26.17;17.20;;;;;;;5.93;66.19;102885.53;4970353;28;20554;-73
2021/03/03 00:20:18;;;;;;;25.90;16.65;;;;;;;5.88;66.77;102884.91;4970877;28;20517;-74
2021/03/03 00:22:44;;;;;;;25.67;15.65;;;;;;;5.92;67.03;102889.06;4961673;28;20152;-72
2021/03/03 00:25:10;;;;;;;30.55;17.08;;;;;;;5.88;66.61;102884.03;4967310;28;20062;-72
2021/03/03 00:27:36;;;;;;;26.73;16.08;;;;;;;5.87;66.97;102891.00;4947299;28;20093;-73
2021/03/03 00:30:15;;;;;;;28.20;16.33;;;;;;;5.91;66.67;102894.31;4970921;28;20156;-73
2021/03/03 00:32:41;;;;;;;27.93;15.50;;;;;;;5.88;66.61;102897.91;4943647;28;20055;-73
2021/03/03 00:35:09;;;;;;;25.60;16.08;;;;;;;5.85;67.14;102890.22;4966086;28;20295;-73
2021/03/03 00:37:35;;;;;;;27.63;14.98;;;;;;;5.83;66.37;102888.59;4955356;28;20140;-74
2021/03/03 00:40:03;;;;;;;26.45;16.05;;;;;;;5.81;66.49;102890.44;4960830;28;20055;-73
2021/03/03 00:42:29;;;;;;;25.65;14.50;;;;;;;5.79;66.35;102884.44;4969111;28;20087;-73
2021/03/03 00:44:56;;;;;;;26.05;14.90;;;;;;;5.74;67.35;102893.28;4964487;28;20058;-74
2021/03/03 00:47:22;;;;;;;24.83;16.05;;;;;;;5.69;66.59;102886.56;4969934;28;20055;-72
2021/03/03 00:49:48;;;;;;;27.05;15.45;;;;;;;5.61;66.97;102884.28;4935293;28;20079;-73
2021/03/03 00:52:14;;;;;;;25.60;15.75;;;;;;;5.53;67.91;102884.59;4956916;28;20142;-73
2021/03/03 00:54:40;;;;;;;22.05;14.40;;;;;;;5.59;67.16;102890.47;4941025;28;20055;-74
2021/03/03 00:57:06;;;;;;;23.23;15.07;;;;;;;5.59;66.72;102891.31;4959068;28;20090;-75
2021/03/03 00:59:33;;;;;;;25.80;15.35;;;;;;;5.56;66.34;102888.81;4963557;28;20137;-74
2021/03/03 01:01:58;;;;;;;25.25;15.70;;;;;;;5.46;66.69;102883.16;4948626;28;20525;-74
2021/03/03 01:04:25;;;;;;;30.85;16.23;;;;;;;5.45;66.97;102889.28;4964025;28;20062;-74
2021/03/03 01:06:51;;;;;;;24.83;14.63;;;;;;;5.43;66.64;102883.28;4956267;28;20495;-74
2021/03/03 01:09:17;;;;;;;27.58;17.98;;;;;;;5.41;67.02;102884.25;4967754;28;20078;-73
2021/03/03 01:11:43;;;;;;;25.67;16.38;;;;;;;5.35;67.62;102880.13;4960865;28;20062;-73
2021/03/03 01:14:09;;;;;;;24.13;15.18;;;;;;;5.35;67.06;102887.94;4967426;28;20065;-73
2021/03/03 01:16:35;;;;;;;28.83;16.20;;;;;;;5.31;66.64;102884.63;4961045;28;20062;-73
2021/03/03 01:19:01;;;;;;;22.20;14.65;;;;;;;5.32;67.05;102891.53;4962200;28;20065;-74
2021/03/03 01:21:27;;;;;;;28.23;15.63;;;;;;;5.28;67.51;102889.94;4964907;28;20094;-73
2021/03/03 01:23:53;;;;;;;22.23;14.23;;;;;;;5.20;67.70;102883.38;4960348;28;20178;-74
2021/03/03 01:26:19;;;;;;;22.58;13.75;;;;;;;5.22;67.48;102887.59;4966753;28;20070;-73
2021/03/03 01:28:45;;;;;;;25.38;15.10;;;;;;;5.19;67.40;102884.25;4960995;28;20670;-74
2021/03/03 01:31:11;;;;;;;25.98;15.10;;;;;;;5.21;67.91;102882.44;4964503;28;20084;-73
2021/03/03 01:33:37;;;;;;;26.98;14.95;;;;;;;5.23;67.57;102878.03;4943471;28;20059;-73
2021/03/03 01:36:03;;;;;;;25.45;14.93;;;;;;;5.11;67.75;102869.78;4965468;28;20067;-73
2021/03/03 01:38:29;;;;;;;27.13;16.25;;;;;;;5.17;68.23;102879.13;4957609;28;20062;-73
2021/03/03 01:40:56;;;;;;;22.75;15.13;;;;;;;5.11;68.04;102869.78;4966128;28;20125;-72
2021/03/03 01:43:22;;;;;;;23.45;15.15;;;;;;;5.14;67.91;102868.84;4966206;28;20062;-72
2021/03/03 01:45:49;;;;;;;21.02;13.10;;;;;;;5.11;68.09;102874.16;4957680;28;20062;-75
2021/03/03 01:48:16;;;;;;;26.70;16.50;;;;;;;5.04;68.61;102876.16;4944860;28;20121;-73
2021/03/03 01:50:43;;;;;;;25.67;15.05;;;;;;;5.04;68.20;102870.97;4952201;28;20059;-73
2021/03/03 01:53:09;;;;;;;24.52;15.35;;;;;;;5.00;68.89;102865.91;4930600;28;20065;-73
2021/03/03 01:55:36;;;;;;;24.77;14.40;;;;;;;4.92;68.75;102859.28;4960508;28;20117;-74
2021/03/03 01:58:03;;;;;;;32.40;15.65;;;;;;;4.94;68.59;102867.88;4970743;28;20094;-73
2021/03/03 02:00:30;;;;;;;25.25;15.30;;;;;;;4.89;68.76;102851.59;4957421;28;20055;-72
2021/03/03 02:02:56;;;;;;;27.77;15.90;;;;;;;4.88;69.32;102846.44;4944374;28;20178;-73
2021/03/03 02:05:22;;;;;;;24.00;15.30;;;;;;;4.96;68.86;102852.22;4963448;28;20066;-73
2021/03/03 02:07:55;;;;;;;25.13;14.57;;;;;;;4.92;68.99;102855.81;4946962;28;20801;-73
2021/03/03 02:10:58;;;;;;;22.83;14.90;;;;;;;4.90;68.22;102849.81;4949075;28;20059;-73
2021/03/03 02:13:42;;;;;;;26.95;14.68;;;;;;;4.86;68.64;102843.94;4956567;28;20058;-73
2021/03/03 02:16:10;;;;;;;26.73;15.20;;;;;;;4.83;68.95;102835.38;4933166;28;20161;-73
2021/03/03 02:18:38;;;;;;;28.88;15.20;;;;;;;4.78;69.36;102840.75;4941823;28;20145;-73
2021/03/03 02:21:26;;;;;;;28.10;16.10;;;;;;;4.85;69.29;102847.41;4966236;28;20138;-73
2021/03/03 02:24:00;;;;;;;23.23;15.30;;;;;;;4.85;69.67;102846.56;4941786;28;20166;-73
2021/03/03 02:26:34;;;;;;;28.63;15.60;;;;;;;4.83;69.91;102835.38;4953480;28;20088;-73
2021/03/03 02:29:06;;;;;;;23.52;14.57;;;;;;;4.81;68.48;102832.00;4936185;28;20178;-73
2021/03/03 02:31:42;;;;;;;26.10;14.73;;;;;;;4.75;69.06;102827.88;4957251;28;20062;-73
2021/03/03 02:34:11;;;;;;;27.38;14.88;;;;;;;4.74;69.34;102834.84;4959148;28;20065;-73
2021/03/03 02:36:37;;;;;;;;;;;;;;;4.74;70.34;102840.03;4948368;28;20129;-73
2021/03/03 02:39:05;;;;;;;25.98;15.02;;;;;;;4.71;70.56;102840.16;4960615;28;20341;-73
2021/03/03 02:41:33;;;;;;;24.92;14.80;;;;;;;4.64;70.63;102833.47;4963262;28;20137;-73
2021/03/03 02:44:04;;;;;;;25.48;14.55;;;;;;;4.69;70.27;102835.91;4947135;28;20070;-73
2021/03/03 02:46:32;;;;;;;25.23;14.00;;;;;;;4.66;70.02;102838.63;4958175;28;20154;-72
2021/03/03 02:49:00;;;;;;;23.73;14.52;;;;;;;4.64;69.69;102833.47;4965790;28;20092;-73
2021/03/03 02:51:26;;;;;;;22.80;14.50;;;;;;;4.63;69.34;102841.38;4937045;28;20815;-72
2021/03/03 02:53:51;;;;;;;24.30;14.80;;;;;;;4.59;69.48;102834.56;4960727;28;20062;-74
2021/03/03 02:56:18;;;;;;;26.60;14.80;;;;;;;4.54;69.69;102832.97;4957276;28;20063;-73
2021/03/03 02:58:45;;;;;;;24.00;14.20;;;;;;;4.54;69.11;102825.19;4965230;28;20059;-73
2021/03/03 03:01:14;;;;;;;24.50;14.15;;;;;;;4.52;69.67;102824.41;4942365;28;20169;-73
2021/03/03 03:04:02;;;;;;;27.70;14.95;;;;;;;4.46;69.74;102821.19;4963463;28;20169;-72
2021/03/03 03:06:37;;;;;;;25.37;14.27;;;;;;;4.45;69.78;102828.16;4959979;28;20097;-73
2021/03/03 03:09:07;;;;;;;22.15;14.18;;;;;;;4.45;69.55;102819.47;4958484;28;20582;-74
2021/03/03 03:11:36;;;;;;;26.90;13.80;;;;;;;4.35;69.85;102812.06;4945902;28;20165;-74
2021/03/03 03:14:08;;;;;;;24.67;13.55;;;;;;;4.41;69.90;102820.50;4941901;28;20435;-73
2021/03/03 03:16:38;;;;;;;23.60;13.90;;;;;;;4.42;70.12;102822.22;4964238;28;20478;-73
2021/03/03 03:19:11;;;;;;;25.38;14.45;;;;;;;4.40;70.05;102818.81;4955805;28;20059;-73
2021/03/03 03:21:39;;;;;;;31.77;14.00;;;;;;;4.41;69.65;102818.78;4962051;28;20239;-74
2021/03/03 03:24:07;;;;;;;24.13;14.73;;;;;;;4.41;70.07;102812.72;4959148;28;20125;-73
2021/03/03 03:26:33;;;;;;;24.95;15.40;;;;;;;4.41;70.17;102812.72;4964895;28;20062;-73
2021/03/03 03:29:28;;;;;;;25.13;14.38;;;;;;;4.38;69.42;102812.84;4959135;28;20061;-74
2021/03/03 03:31:55;;;;;;;24.40;14.63;;;;;;;4.43;70.20;102818.69;4942952;28;20062;-73
2021/03/03 03:34:22;;;;;;;24.15;15.02;;;;;;;4.43;69.67;102813.50;4960932;28;20137;-73
2021/03/03 03:36:48;;;;;;;20.92;13.88;;;;;;;4.40;69.48;102806.69;4958666;28;20062;-73
2021/03/03 03:39:15;;;;;;;21.30;13.57;;;;;;;4.40;69.69;102806.69;4965332;28;20150;-73
2021/03/03 03:41:42;;;;;;;24.35;14.07;;;;;;;4.39;69.68;102810.19;4936072;28;20142;-73
2021/03/03 03:44:11;;;;;;;22.85;13.68;;;;;;;4.39;69.56;102801.53;4956912;28;20058;-73
2021/03/03 03:46:39;;;;;;;22.08;13.65;;;;;;;4.36;69.57;102812.88;4954717;28;20144;-73
2021/03/03 03:49:06;;;;;;;22.70;14.05;;;;;;;4.22;70.32;102789.19;4961581;28;20086;-73
2021/03/03 03:51:32;;;;;;;22.67;14.23;;;;;;;4.27;70.23;102787.25;4958443;28;20400;-74
2021/03/03 03:54:00;;;;;;;23.08;13.48;;;;;;;4.40;69.62;102811.88;4964188;28;20491;-73
2021/03/03 03:56:26;;;;;;;23.35;13.63;;;;;;;4.44;70.00;102810.84;4967466;28;20590;-73
2021/03/03 03:58:52;;;;;;;21.50;13.57;;;;;;;4.43;70.03;102814.38;4957071;28;20165;-73
2021/03/03 04:01:19;;;;;;;23.42;12.98;;;;;;;4.36;69.60;102812.88;4959448;28;20050;-74
2021/03/03 04:03:45;;;;;;;25.92;13.82;;;;;;;4.34;69.61;102818.13;4957156;28;20094;-74
2021/03/03 04:06:11;;;;;;;18.85;11.70;;;;;;;4.30;69.10;102813.13;4947518;28;20489;-73
2021/03/03 04:08:37;;;;;;;20.77;12.82;;;;;;;4.23;69.69;102811.66;4958584;28;20066;-73
2021/03/03 04:11:03;;;;;;;21.63;12.98;;;;;;;4.20;69.53;102811.78;4947674;28;20057;-73
2021/03/03 04:13:29;;;;;;;24.20;13.82;;;;;;;4.12;69.92;102812.06;4942441;28;20059;-73
2021/03/03 04:15:55;;;;;;;21.63;13.57;;;;;;;4.16;70.10;102817.06;4956900;28;20068;-73
2021/03/03 04:18:21;;;;;;;21.40;12.90;;;;;;;4.18;69.99;102819.63;4964500;28;20054;-73
2021/03/03 04:20:47;;;;;;;21.02;13.43;;;;;;;4.15;70.13;102819.72;4957711;28;20487;-73
2021/03/03 04:23:13;;;;;;;23.52;14.10;;;;;;;4.12;71.46;102819.84;4963497;28;20063;-73
2021/03/03 04:25:40;;;;;;;25.50;14.27;;;;;;;4.07;71.69;102803.56;4958399;28;20122;-73
2021/03/03 04:28:07;;;;;;;26.92;13.00;;;;;;;4.16;70.52;102821.44;4960572;28;20102;-73
2021/03/03 04:30:34;;;;;;;25.40;12.90;;;;;;;4.14;70.52;102826.66;4958551;28;20596;-73
2021/03/03 04:33:08;;;;;;;22.10;12.93;;;;;;;4.12;70.83;102814.66;4967609;28;20140;-73
2021/03/03 04:35:35;;;;;;;20.00;13.00;;;;;;;4.09;70.58;102810.38;4967243;28;20058;-73
2021/03/03 04:38:01;;;;;;;29.02;14.15;;;;;;;4.00;70.84;102810.75;4961100;28;20137;-73
2021/03/03 04:40:27;;;;;;;23.70;14.15;;;;;;;3.99;71.55;102823.78;4966147;28;20070;-73
2021/03/03 04:42:53;;;;;;;26.00;13.60;;;;;;;4.05;71.59;102826.16;4957156;28;20093;-73
2021/03/03 04:45:19;;;;;;;20.80;12.98;;;;;;;3.99;71.58;102819.41;4967525;28;20533;-72
2021/03/03 04:47:45;;;;;;;22.80;13.73;;;;;;;4.01;70.83;102812.44;4961222;28;20081;-73
2021/03/03 04:50:12;;;;;;;23.33;13.60;;;;;;;4.06;70.66;102826.09;4967707;28;20055;-73
2021/03/03 04:52:38;;;;;;;24.15;13.45;;;;;;;4.04;70.69;102819.25;4960546;28;20123;-73
2021/03/03 04:55:05;;;;;;;21.98;13.77;;;;;;;4.02;71.07;102810.66;4950380;28;20122;-73
2021/03/03 04:57:32;;;;;;;22.20;12.95;;;;;;;4.04;70.52;102812.31;4965313;28;20446;-73
2021/03/03 04:59:57;;;;;;;23.58;13.77;;;;;;;4.07;71.02;102822.59;4961723;28;20486;-73
2021/03/03 05:02:24;;;;;;;22.40;13.23;;;;;;;4.04;70.92;102817.53;4966513;28;20062;-73
2021/03/03 05:04:50;;;;;;;21.65;12.48;;;;;;;4.06;70.71;102815.72;4957215;28;20070;-72
2021/03/03 05:07:16;;;;;;;21.27;12.75;;;;;;;4.07;70.58;102817.38;4965299;28;20054;-73
2021/03/03 05:09:42;;;;;;;24.27;14.38;;;;;;;4.00;70.71;102802.09;4955950;28;20090;-73
2021/03/03 05:12:08;;;;;;;26.60;13.63;;;;;;;3.94;71.00;102805.78;4966340;28;20923;-73
2021/03/03 05:14:35;;;;;;;25.65;14.25;;;;;;;4.01;71.92;102812.44;4945876;28;20117;-74
2021/03/03 05:17:02;;;;;;;28.42;15.55;;;;;;;4.02;71.43;102805.47;4961963;28;20433;-74
2021/03/03 05:19:28;;;;;;;22.90;13.55;;;;;;;3.96;71.32;102790.97;4966711;28;20062;-74
2021/03/03 05:21:54;;;;;;;22.80;14.05;;;;;;;4.04;70.96;102798.47;4956819;28;20082;-74
2021/03/03 05:24:21;;;;;;;26.20;14.35;;;;;;;4.03;71.42;102797.63;4963704;28;20799;-73
2021/03/03 05:26:47;;;;;;;23.33;14.68;;;;;;;4.00;72.21;102789.97;4945428;28;20714;-74
2021/03/03 05:29:13;;;;;;;25.45;13.02;;;;;;;4.05;70.88;102798.41;4967483;28;20094;-74
2021/03/03 05:31:39;;;;;;;27.60;14.68;;;;;;;4.06;70.77;102797.53;4961141;28;20086;-73
2021/03/03 05:34:05;;;;;;;22.88;13.70;;;;;;;4.05;71.71;102793.22;4949061;28;20090;-74
2021/03/03 05:36:31;;;;;;;24.58;14.00;;;;;;;4.10;71.28;102796.53;4948386;28;20069;-74
2021/03/03 05:38:57;;;;;;;25.67;13.93;;;;;;;4.09;70.94;102797.41;4958751;28;20062;-74
2021/03/03 05:41:25;;;;;;;30.10;14.02;;;;;;;4.09;70.83;102793.97;4966650;28;20082;-74
2021/03/03 05:43:52;;;;;;;24.00;14.68;;;;;;;4.05;70.82;102788.03;4959984;28;20063;-74
2021/03/03 05:46:18;;;;;;;28.17;13.60;;;;;;;4.07;70.50;102787.97;4966608;28;20629;-73
2021/03/03 05:49:01;;;;;;;24.10;14.63;;;;;;;4.05;70.82;102801.03;4956890;28;20171;-74
2021/03/03 05:51:29;;;;;;;23.58;12.80;;;;;;;4.04;70.69;102796.75;4963178;28;20054;-74
2021/03/03 05:53:58;;;;;;;22.15;12.95;;;;;;;4.01;69.80;102794.25;4945353;28;20121;-74
2021/03/03 05:56:25;;;;;;;24.20;14.20;;;;;;;3.94;70.49;102787.59;4950387;28;20058;-74
2021/03/03 05:58:53;;;;;;;22.50;13.82;;;;;;;3.99;70.53;102800.41;4965983;28;20051;-76
2021/03/03 06:01:21;;;;;;;24.27;14.73;;;;;;;3.90;71.03;102792.06;4942610;28;20233;-74
2021/03/03 06:03:48;;;;;;;25.87;13.43;;;;;;;3.93;71.17;102793.69;4962429;28;20132;-74
2021/03/03 06:06:15;;;;;;;25.13;13.32;;;;;;;3.86;70.93;102797.38;4939667;28;20109;-74
2021/03/03 06:08:41;;;;;;;26.08;12.73;;;;;;;3.87;71.48;102804.28;4943657;28;20090;-74
2021/03/03 06:11:07;;;;;;;21.20;13.63;;;;;;;3.89;71.17;102812.88;4953097;28;20063;-74
2021/03/03 06:13:33;;;;;;;25.48;13.80;;;;;;;3.91;71.03;102811.06;4960841;28;20113;-74
2021/03/03 06:15:59;;;;;;;23.45;13.98;;;;;;;3.90;70.99;102801.56;4962874;28;20105;-74
2021/03/03 06:18:26;;;;;;;25.58;13.55;;;;;;;3.94;71.16;102810.97;4956504;28;20069;-73
2021/03/03 06:20:53;;;;;;;20.50;13.02;;;;;;;3.92;71.20;102817.94;4935046;28;20055;-73
2021/03/03 06:23:22;;;;;;;24.90;14.07;;;;;;;3.93;70.84;102817.03;4942873;28;20067;-73
2021/03/03 06:26:07;;;;;;;25.63;14.40;;;;;;;3.93;71.25;102809.25;4966047;28;20071;-74
2021/03/03 06:28:44;;;;;;;32.92;19.15;;;;;;;3.93;70.98;102804.91;4952046;28;20103;-74
2021/03/03 06:31:27;;;;;;;34.20;19.67;;;;;;;3.93;71.26;102804.91;4962942;28;20078;-73
2021/03/03 06:34:12;;;;;;;29.20;17.50;;;;;;;3.92;71.34;102808.41;4954749;28;20051;-74
2021/03/03 06:36:40;;;;;;;32.55;17.52;;;;;;;3.90;70.94;102791.19;4963675;28;20086;-74
2021/03/03 06:39:16;;;;;;;27.23;15.57;;;;;;;3.91;70.96;102801.50;4960355;28;20166;-74
2021/03/03 06:41:42;;;;;;;23.13;14.25;;;;;;;3.91;70.88;102800.69;4947840;28;20601;-74
2021/03/03 06:44:08;;;;;;;25.25;16.13;;;;;;;3.89;71.06;102803.31;4947906;28;20196;-74
2021/03/03 06:46:34;;;;;;;27.65;14.95;;;;;;;3.92;71.33;102807.53;4961556;28;20090;-74
2021/03/03 06:49:01;;;;;;;23.88;14.10;;;;;;;3.97;71.70;102805.66;4965301;28;20059;-74
2021/03/03 06:51:28;;;;;;;22.83;14.18;;;;;;;3.86;71.17;102795.66;4943687;28;20054;-76
2021/03/03 06:53:56;;;;;;;26.55;14.15;;;;;;;3.93;71.33;102804.91;4938540;29;20063;-74
2021/03/03 06:56:38;;;;;;;28.40;14.00;;;;;;;3.99;70.82;102810.78;4956798;28;20063;-74
2021/03/03 06:59:34;;;;;;;26.63;15.70;;;;;;;3.96;71.62;102820.38;4946454;28;20495;-76
2021/03/03 07:02:08;;;;;;;26.42;15.98;;;;;;;3.98;71.81;102817.75;4938124;28;20558;-74
2021/03/03 07:04:36;;;;;;;26.42;15.40;;;;;;;4.00;71.38;102828.94;4949393;28;20063;-74
2021/03/03 07:07:13;;;;;;;29.02;16.30;;;;;;;4.04;72.14;102825.31;4960542;28;20090;-75
2021/03/03 07:09:41;;;;;;;24.73;14.05;;;;;;;4.07;71.35;102827.78;4958640;28;20442;-74
2021/03/03 07:12:11;;;;;;;25.92;14.63;;;;;;;4.11;71.28;102828.53;4941807;28;20126;-74
2021/03/03 07:14:41;;;;;;;20.40;14.18;;;;;;;4.14;71.48;102834.47;4948680;28;20094;-75
2021/03/03 07:17:18;;;;;;;22.65;14.48;;;;;;;4.21;71.47;102834.22;4960292;28;20565;-75
2021/03/03 07:19:46;;;;;;;25.55;15.55;;;;;;;4.28;71.94;102838.31;4949299;28;20465;-75
2021/03/03 07:22:31;;;;;;;32.17;17.88;;;;;;;4.34;72.52;102838.09;4961429;28;20770;-74
2021/03/03 07:25:00;;;;;;;46.00;25.65;;;;;;;4.40;72.35;102845.66;4962170;28;20090;-74
2021/03/03 07:27:28;;;;;;;41.38;24.38;;;;;;;4.45;72.31;102843.75;4965477;28;20826;-74
2021/03/03 07:30:07;;;;;;;37.83;23.23;;;;;;;4.51;72.29;102851.31;4959860;28;20094;-74
2021/03/03 07:32:33;;;;;;;32.13;20.05;;;;;;;4.59;72.54;102850.16;4964109;28;20470;-74
2021/03/03 07:35:00;;;;;;;31.33;18.48;;;;;;;4.67;72.21;102850.72;4956651;28;20091;-74
2021/03/03 07:37:33;;;;;;;30.65;17.98;;;;;;;4.69;72.27;102841.97;4952205;28;20137;-74
2021/03/03 07:40:06;;;;;;;27.38;16.92;;;;;;;4.83;72.29;102846.63;4958712;28;20150;-75
2021/03/03 07:42:32;;;;;;;26.95;17.92;;;;;;;4.89;72.75;102850.75;4961971;28;20772;-69
2021/03/03 07:45:01;;;;;;;27.80;18.00;;;;;;;4.98;72.75;102849.53;4959796;28;20090;-74
2021/03/03 07:47:30;;;;;;;26.70;16.23;;;;;;;5.09;72.44;102850.81;4964879;28;20058;-72
2021/03/03 07:50:00;;;;;;;21.77;15.27;;;;;;;5.13;72.96;102846.31;4961637;28;20145;-73
2021/03/03 07:52:26;;;;;;;27.75;14.60;;;;;;;5.27;73.31;102853.56;4955624;28;20090;-74
2021/03/03 07:54:53;;;;;;;30.27;16.95;;;;;;;5.33;73.35;102843.78;4961476;28;20062;-73
2021/03/03 07:57:20;;;;;;;26.42;16.30;;;;;;;5.42;73.17;102834.72;4943027;28;20063;-73
2021/03/03 07:59:46;;;;;;;28.50;17.23;;;;;;;5.64;73.18;102852.91;4958164;28;20059;-72
2021/03/03 08:02:12;;;;;;;31.80;18.20;;;;;;;5.76;73.22;102848.94;4951181;28;20125;-72
2021/03/03 08:04:41;;;;;;;32.95;18.42;;;;;;;5.85;72.36;102848.56;4963150;28;20073;-73
2021/03/03 08:07:27;;;;;;;34.45;18.00;;;;;;;6.00;72.50;102851.44;4963602;28;20188;-72
2021/03/03 08:10:12;;;;;;;34.03;19.10;;;;;;;6.09;72.75;102853.63;4968425;28;20070;-72
2021/03/03 08:13:08;;;;;;;32.13;18.00;;;;;;;6.21;72.92;102854.84;4952756;28;20055;-72
2021/03/03 08:15:48;;;;;;;31.15;16.85;;;;;;;6.30;72.25;102849.25;4949744;28;20153;-73
2021/03/03 08:18:15;;;;;;;30.95;19.73;;;;;;;6.32;72.03;102845.66;4926652;28;20676;-72
2021/03/03 08:20:43;;;;;;;32.97;20.40;;;;;;;6.39;71.86;102847.97;4967449;28;20141;-72
2021/03/03 08:23:34;;;;;;;36.67;21.02;;;;;;;6.45;72.09;102858.97;4950793;28;20063;-72
2021/03/03 08:26:17;;;;;;;34.67;19.73;;;;;;;6.52;72.65;102851.72;4949246;28;20054;-73
2021/03/03 08:28:50;;;;;;;38.83;21.70;;;;;;;6.62;71.90;102854.75;4950577;28;20086;-73
2021/03/03 08:31:24;;;;;;;27.65;19.27;;;;;;;6.70;71.31;102850.88;4944383;28;20055;-73
2021/03/03 08:33:51;;;;;;;33.53;19.98;;;;;;;6.79;71.44;102844.38;4965582;28;20609;-74
2021/03/03 08:36:21;;;;;;;34.92;22.08;;;;;;;6.84;71.66;102841.53;4962275;28;20121;-73
2021/03/03 08:38:55;;;;;;;41.67;23.00;;;;;;;6.88;71.28;102840.47;4964299;28;20090;-73
2021/03/03 08:41:23;;;;;;;37.97;22.42;;;;;;;6.92;71.70;102837.66;4962245;28;20055;-74
2021/03/03 08:43:58;;;;;;;34.67;22.48;;;;;;;7.05;72.06;102834.47;4963540;28;20073;-73
2021/03/03 08:46:28;;;;;;;37.88;21.98;;;;;;;7.14;72.44;102831.41;4940872;28;20073;-73
2021/03/03 08:48:55;;;;;;;37.80;21.90;;;;;;;7.25;71.64;102838.72;4967502;28;20125;-73
2021/03/03 08:51:30;;;;;;;36.28;21.95;;;;;;;7.32;71.47;102847.94;4965965;28;20081;-72
2021/03/03 08:53:58;;;;;;;42.10;22.42;;;;;;;7.39;70.89;102843.25;4957441;28;20494;-73
2021/03/03 08:56:33;;;;;;;34.58;21.73;;;;;;;7.44;70.97;102847.31;4965272;28;20050;-73
2021/03/03 08:59:06;;;;;;;39.67;24.05;;;;;;;7.56;71.60;102839.81;4935389;28;20146;-73
2021/03/03 09:01:55;;;;;;;44.10;24.60;;;;;;;7.63;70.14;102835.97;4963783;28;20054;-73
2021/03/03 09:04:28;;;;;;;38.97;23.90;;;;;;;7.69;70.14;102838.25;4941583;28;20062;-73
2021/03/03 09:07:03;;;;;;;34.40;23.92;;;;;;;7.66;69.95;102835.78;4966304;28;20584;-73
2021/03/03 09:09:35;;;;;;;41.20;24.08;;;;;;;7.77;70.26;102832.66;4941930;28;20149;-73
2021/03/03 09:12:10;;;;;;;39.45;25.33;;;;;;;7.82;70.66;102828.88;4944936;28;20054;-72
2021/03/03 09:14:38;;;;;;;44.22;25.88;;;;;;;7.88;69.80;102825.94;4958544;28;20098;-72
2021/03/03 09:17:06;;;;;;;41.28;24.73;;;;;;;7.89;69.63;102832.84;4963312;28;20153;-72
2021/03/03 09:19:34;;;;;;;46.60;27.58;;;;;;;7.96;70.00;102833.38;4952969;28;20149;-72
2021/03/03 09:22:00;;;;;;;42.47;26.35;;;;;;;8.04;69.68;102835.59;4949470;28;20058;-73
2021/03/03 09:24:29;;;;;;;39.40;24.10;;;;;;;8.05;69.24;102829.44;4964031;28;20110;-72
2021/03/03 09:27:08;;;;;;;41.85;25.90;;;;;;;8.16;69.65;102829.72;4961590;28;20541;-72
2021/03/03 09:29:37;;;;;;;47.08;25.48;;;;;;;8.13;69.15;102819.41;4967522;28;20140;-72
2021/03/03 09:32:19;;;;;;;40.50;24.40;;;;;;;8.12;69.15;102808.13;4960946;28;20574;-72
2021/03/03 09:34:52;;;;;;;40.90;25.83;;;;;;;8.32;68.71;102827.97;4954475;28;20058;-72
2021/03/03 09:37:19;;;;;;;37.53;23.80;;;;;;;8.44;68.92;102821.25;4956643;28;20063;-73
2021/03/03 09:39:53;;;;;;;39.35;26.27;;;;;;;8.50;69.30;102815.69;4925356;28;20071;-72
2021/03/03 09:42:19;;;;;;;38.47;24.63;;;;;;;8.61;68.82;102817.72;4953477;28;20078;-73
2021/03/03 09:44:57;;;;;;;42.05;26.27;;;;;;;8.75;68.58;102822.19;4965608;28;20054;-72
2021/03/03 09:47:32;;;;;;;39.70;26.33;;;;;;;8.80;68.40;102817.56;4960960;28;20133;-72
2021/03/03 09:50:25;;;;;;;40.80;26.23;;;;;;;8.90;68.32;102821.34;4949588;28;20059;-72
2021/03/03 09:52:53;;;;;;;34.90;24.42;;;;;;;8.86;67.37;102816.34;4951186;28;20546;-72
2021/03/03 09:55:24;;;;;;;45.05;25.15;;;;;;;9.01;67.47;102812.88;4965937;28;20117;-72
2021/03/03 09:57:55;;;;;;;43.85;26.00;;;;;;;9.08;67.75;102805.53;4949014;28;20211;-72
2021/03/03 10:00:29;;;;;;;41.78;25.05;;;;;;;9.12;67.00;102801.78;4949332;28;20161;-72
2021/03/03 10:03:00;;;;;;;43.60;26.58;;;;;;;9.20;66.81;102804.81;4965584;28;20058;-73
2021/03/03 10:05:29;;;;;;;44.03;26.20;;;;;;;9.33;66.66;102807.56;4958858;28;20061;-73
2021/03/03 10:07:57;;;;;;;39.60;26.63;;;;;;;9.37;66.30;102802.97;4963772;28;20503;-72
2021/03/03 10:10:25;;;;;;;43.60;27.00;;;;;;;9.38;67.05;102815.16;4961300;28;20055;-72
2021/03/03 10:12:51;;;;;;;39.45;27.45;;;;;;;9.44;67.28;102809.56;4965589;28;20062;-74
2021/03/03 10:15:21;;;;;;;43.83;26.85;;;;;;;9.48;67.24;102804.03;4939684;28;20138;-72
2021/03/03 10:17:52;;;;;;;38.38;26.67;;;;;;;9.56;66.89;102808.81;4954815;28;20113;-72
2021/03/03 10:20:38;;;;;;;54.80;30.25;;;;;;;9.57;66.72;102809.69;4957566;28;20058;-73
2021/03/03 10:23:35;;;;;;;40.50;26.20;;;;;;;9.70;66.93;102802.75;4947416;28;20122;-73
2021/03/03 10:26:05;;;;;;;42.42;27.42;;;;;;;9.84;67.30;102809.78;4950043;28;20076;-72
2021/03/03 10:28:32;;;;;;;44.22;28.63;;;;;;;9.94;66.72;102815.31;4937854;29;20102;-73
2021/03/03 10:31:04;;;;;;;39.75;27.08;;;;;;;10.02;65.84;102808.69;4957608;28;20507;-72
2021/03/03 10:33:33;;;;;;;41.90;27.75;;;;;;;10.05;65.40;102802.38;4958529;28;20141;-73
2021/03/03 10:36:03;;;;;;;46.63;29.33;;;;;;;10.17;66.09;102804.25;4945639;28;20086;-72
2021/03/03 10:38:30;;;;;;;46.45;29.10;;;;;;;10.18;65.49;102805.94;4953831;28;20563;-72
2021/03/03 10:40:59;;;;;;;43.53;29.65;;;;;;;10.32;65.91;102812.16;4965868;28;20090;-72
2021/03/03 10:43:27;;;;;;;42.08;26.83;;;;;;;10.37;64.98;102803.06;4958701;28;20054;-74
2021/03/03 10:46:17;;;;;;;40.72;29.88;;;;;;;10.38;64.61;102803.88;4962308;28;20141;-72
2021/03/03 10:48:48;;;;;;;41.70;28.80;;;;;;;10.34;64.49;102799.78;4929112;28;20101;-73
2021/03/03 10:51:16;;;;;;;45.13;29.90;;;;;;;10.47;64.35;102816.44;4965745;28;20058;-73
2021/03/03 10:53:54;;;;;;;48.70;31.55;;;;;;;10.65;64.42;102817.03;4959658;28;20529;-73
2021/03/03 10:56:22;;;;;;;45.00;29.83;;;;;;;10.80;64.22;102809.94;4967116;28;20090;-73
2021/03/03 10:58:48;;;;;;;49.28;30.98;;;;;;;10.95;64.22;102805.50;4963432;28;20070;-71
2021/03/03 11:01:18;;;;;;;46.80;30.92;;;;;;;11.12;62.95;102815.75;4955547;28;20091;-73
2021/03/03 11:04:03;;;;;;;46.45;31.60;;;;;;;11.17;62.45;102802.28;4951146;28;20088;-74
2021/03/03 11:06:30;;;;;;;57.20;33.92;;;;;;;11.39;62.95;102807.81;4958942;28;20062;-73
2021/03/03 11:08:57;;;;;;;45.67;32.15;;;;;;;11.54;62.46;102810.34;4966166;28;20062;-73
2021/03/03 11:11:26;;;;;;;47.50;31.90;;;;;;;11.77;62.25;102809.59;4943191;28;20502;-73
2021/03/03 11:13:53;;;;;;;50.38;35.20;;;;;;;11.71;59.72;102807.41;4945969;28;20094;-72
2021/03/03 11:16:21;;;;;;;49.10;32.70;;;;;;;11.77;60.40;102801.72;4939261;28;20085;-73
2021/03/03 11:18:47;;;;;;;51.40;35.55;;;;;;;11.84;60.44;102802.16;4965059;28;20141;-73
2021/03/03 11:21:13;;;;;;;46.88;33.97;;;;;;;11.96;61.71;102787.34;4964614;28;20414;-73
2021/03/03 11:23:44;;;;;;;47.17;32.72;;;;;;;12.18;61.17;102791.94;4963036;28;20090;-72
2021/03/03 11:26:10;;;;;;;50.83;34.45;;;;;;;12.21;60.48;102800.44;4947684;28;20082;-72
2021/03/03 11:28:36;;;;;;;48.20;34.83;;;;;;;12.35;59.46;102790.72;4936906;28;20066;-72